ルクソール の空港の天気 - METARとTAF

ルクソール国際空港 ( HELX / LXR ) - エジプト ルクソール
飛行場実況気象(Metar)
観測時間12/15 14:00 EET (12/15 12:00 UTC)
風向・風速西 1m/s
視程5000m
天気現象煙霧
なし
気温24℃
湿度41%
気圧1016hPa
METARHELX 151200Z 26002KT 5000 HZ NSC 24/10 Q1016 NOSIG
過去の天気等 Google飛行場航空写真 Wunderground天気予報

過去48時間のMETAR

飛行場予報(TAF)
発表時間: 12/15 13:00 EET (12/15 11:00 UTC)
予報対象時間: 15日14時 EET ~ 16日20時 EET
風向・風速北 4m/s
視程6000m
なし
TAF HELX 151100Z 1512/1618 36008KT 6000 NSC